createdAt,value
2023-01-26T00:02:22.990Z,1.60
2023-01-26T00:04:51.434Z,1.60
2023-01-26T00:07:19.820Z,1.60
2023-01-26T00:09:48.031Z,1.50
2023-01-26T00:12:16.460Z,1.50
2023-01-26T00:14:52.111Z,1.60
2023-01-26T00:17:28.742Z,1.50
2023-01-26T00:19:58.903Z,1.50
2023-01-26T00:22:28.484Z,1.60
2023-01-26T00:24:56.704Z,1.50
2023-01-26T00:27:25.023Z,1.40
2023-01-26T00:29:54.996Z,1.40
2023-01-26T00:32:23.171Z,1.30
2023-01-26T00:34:51.896Z,1.30
2023-01-26T00:37:20.439Z,1.40
2023-01-26T00:39:48.665Z,1.50
2023-01-26T00:42:17.139Z,1.40
2023-01-26T00:44:45.654Z,1.60
2023-01-26T00:47:15.800Z,1.60
2023-01-26T00:49:44.396Z,1.50
2023-01-26T00:52:13.558Z,1.60
2023-01-26T00:54:41.826Z,1.60
2023-01-26T00:57:10.379Z,1.60
2023-01-26T00:59:38.879Z,1.60
2023-01-26T01:02:07.606Z,1.60
2023-01-26T01:04:37.515Z,1.60
2023-01-26T01:07:05.971Z,1.60
2023-01-26T01:09:34.239Z,1.50
2023-01-26T01:12:02.504Z,1.60
2023-01-26T01:14:30.880Z,1.60
2023-01-26T01:16:59.097Z,1.60
2023-01-26T01:19:27.783Z,1.60
2023-01-26T01:21:57.403Z,1.60
2023-01-26T01:24:25.957Z,1.60
2023-01-26T01:26:54.295Z,1.60
2023-01-26T01:29:22.745Z,1.60
2023-01-26T01:31:50.970Z,1.60
2023-01-26T01:34:19.574Z,1.70
2023-01-26T01:36:47.867Z,1.80
2023-01-26T01:41:44.833Z,1.70
2023-01-26T01:44:15.654Z,1.80
2023-01-26T01:46:48.565Z,1.80
2023-01-26T01:49:21.878Z,1.80
2023-01-26T01:51:55.500Z,1.80
2023-01-26T01:54:29.951Z,1.80
2023-01-26T01:57:02.061Z,1.90
2023-01-26T01:59:32.633Z,1.80
2023-01-26T02:02:01.594Z,1.70
2023-01-26T02:04:30.228Z,1.70
2023-01-26T02:07:01.517Z,1.70
2023-01-26T02:09:52.522Z,1.80
2023-01-26T02:12:25.117Z,1.80
2023-01-26T02:14:54.874Z,1.80
2023-01-26T02:17:23.417Z,1.90
2023-01-26T02:19:59.785Z,1.80
2023-01-26T02:22:38.639Z,1.80
2023-01-26T02:25:18.976Z,1.80
2023-01-26T02:27:49.679Z,1.80
2023-01-26T02:30:18.807Z,1.90
2023-01-26T02:32:47.241Z,2.10
2023-01-26T02:35:15.867Z,2.10
2023-01-26T02:37:44.092Z,2.00
2023-01-26T02:40:18.258Z,2.00
2023-01-26T02:42:48.369Z,2.10
2023-01-26T02:45:18.257Z,2.10
2023-01-26T02:47:46.720Z,2.00
2023-01-26T02:50:14.636Z,2.00
2023-01-26T02:52:42.985Z,2.00
2023-01-26T02:55:22.912Z,2.10
2023-01-26T02:57:54.413Z,2.10
2023-01-26T03:00:24.581Z,2.00
2023-01-26T03:02:54.382Z,2.10
2023-01-26T03:05:22.788Z,2.10
2023-01-26T03:07:51.498Z,2.20
2023-01-26T03:10:19.983Z,2.20
2023-01-26T03:12:48.243Z,2.30
2023-01-26T03:15:43.108Z,2.30
2023-01-26T03:18:36.697Z,2.30
2023-01-26T03:21:24.952Z,2.30
2023-01-26T03:24:10.806Z,2.30
2023-01-26T03:26:57.829Z,2.40
2023-01-26T03:29:26.706Z,2.30
2023-01-26T03:31:56.707Z,2.40
2023-01-26T03:34:25.035Z,2.40
2023-01-26T03:36:53.248Z,2.40
2023-01-26T03:39:39.669Z,2.40
2023-01-26T03:42:25.443Z,2.40
2023-01-26T03:45:11.906Z,2.50
2023-01-26T03:47:58.922Z,2.40
2023-01-26T03:50:45.499Z,2.40
2023-01-26T03:53:34.932Z,2.50
2023-01-26T03:56:22.394Z,2.40
2023-01-26T03:58:52.966Z,2.40
2023-01-26T04:01:26.519Z,2.40
2023-01-26T04:04:14.317Z,2.40
2023-01-26T04:07:05.565Z,2.40
2023-01-26T04:09:34.502Z,2.30
2023-01-26T04:12:02.891Z,2.30
2023-01-26T04:14:50.461Z,2.40
2023-01-26T04:17:37.245Z,2.40
2023-01-26T04:20:25.779Z,2.40
2023-01-26T04:22:54.209Z,2.40
2023-01-26T04:25:23.894Z,2.50
2023-01-26T04:27:52.344Z,2.50
2023-01-26T04:30:21.240Z,2.60
2023-01-26T04:32:49.499Z,2.70
2023-01-26T04:35:19.484Z,2.60
2023-01-26T04:37:49.047Z,2.50
2023-01-26T04:40:17.692Z,2.50
2023-01-26T04:42:46.154Z,2.60
2023-01-26T04:45:14.515Z,2.50
2023-01-26T04:47:43.196Z,2.40
2023-01-26T04:50:12.500Z,2.40
2023-01-26T04:52:42.426Z,2.40
2023-01-26T04:55:11.202Z,2.40
2023-01-26T04:57:39.678Z,2.40
2023-01-26T05:00:10.792Z,2.40
2023-01-26T05:02:40.717Z,2.50
2023-01-26T05:05:09.765Z,2.50
2023-01-26T05:07:37.981Z,2.50
2023-01-26T05:10:08.691Z,2.50
2023-01-26T05:12:38.351Z,2.50
2023-01-26T05:15:07.411Z,2.60
2023-01-26T05:17:36.331Z,2.60
2023-01-26T05:20:05.495Z,2.60
2023-01-26T05:22:33.919Z,2.60
2023-01-26T05:25:02.392Z,2.70
2023-01-26T05:27:32.120Z,2.70
2023-01-26T05:30:01.013Z,2.70
2023-01-26T05:32:29.679Z,2.70
2023-01-26T05:34:57.969Z,2.80
2023-01-26T05:37:27.429Z,2.80
2023-01-26T05:39:55.976Z,2.80
2023-01-26T05:51:08.777Z,2.80
2023-01-26T05:53:44.362Z,2.80
2023-01-26T05:56:12.754Z,2.80
2023-01-26T05:58:40.960Z,2.80
2023-01-26T06:01:09.452Z,2.80
2023-01-26T06:03:38.003Z,2.80
2023-01-26T06:06:08.159Z,2.80
2023-01-26T06:08:36.342Z,2.80
2023-01-26T06:11:04.832Z,2.80
2023-01-26T06:13:33.007Z,2.80
2023-01-26T06:16:02.228Z,2.90
2023-01-26T06:18:30.858Z,2.90
2023-01-26T06:21:01.059Z,2.90
2023-01-26T06:23:32.127Z,2.90
2023-01-26T06:26:01.345Z,2.90
2023-01-26T06:28:30.040Z,2.90
2023-01-26T06:31:01.320Z,2.90
2023-01-26T06:33:29.710Z,3.00
2023-01-26T06:35:57.872Z,2.90
2023-01-26T06:38:26.204Z,2.90
2023-01-26T06:40:55.772Z,3.00
2023-01-26T06:43:24.196Z,3.00
2023-01-26T06:45:52.817Z,3.00
2023-01-26T06:48:21.069Z,3.00
2023-01-26T06:50:50.780Z,3.00
2023-01-26T06:53:34.308Z,3.00
2023-01-26T06:56:03.935Z,2.90
2023-01-26T06:58:32.164Z,2.90
2023-01-26T07:01:01.330Z,2.90
2023-01-26T07:03:29.617Z,2.90
2023-01-26T07:05:57.835Z,2.90
2023-01-26T07:08:26.314Z,2.90
2023-01-26T07:10:54.474Z,2.90
2023-01-26T07:13:24.159Z,2.90
2023-01-26T07:15:52.533Z,2.90
2023-01-26T07:18:20.727Z,2.90
2023-01-26T07:20:49.131Z,2.90
2023-01-26T07:23:17.778Z,2.90
2023-01-26T07:25:46.014Z,2.90
2023-01-26T07:28:14.222Z,2.80
2023-01-26T07:30:43.939Z,2.80
2023-01-26T07:33:12.409Z,2.80
2023-01-26T07:35:40.524Z,2.80
2023-01-26T07:38:08.809Z,2.80
2023-01-26T07:40:37.047Z,2.90
2023-01-26T07:43:05.445Z,2.80
2023-01-26T07:45:34.555Z,2.80
2023-01-26T07:48:04.305Z,2.70
2023-01-26T07:50:32.748Z,2.70
2023-01-26T07:53:02.071Z,2.70
2023-01-26T07:55:30.589Z,2.70
2023-01-26T07:57:59.031Z,2.60
2023-01-26T08:00:27.287Z,2.70
2023-01-26T08:02:55.673Z,2.70
2023-01-26T08:05:25.521Z,2.70
2023-01-26T08:07:54.241Z,2.80
2023-01-26T08:10:22.641Z,2.80
2023-01-26T08:12:50.855Z,2.80
2023-01-26T08:15:19.438Z,2.80
2023-01-26T08:17:47.820Z,2.90
2023-01-26T08:20:16.176Z,2.90
2023-01-26T08:22:45.968Z,3.00
2023-01-26T08:25:14.667Z,3.00
2023-01-26T08:27:42.850Z,2.90
2023-01-26T08:30:12.798Z,2.90
2023-01-26T08:32:41.493Z,2.90
2023-01-26T08:35:10.428Z,3.00
2023-01-26T08:37:38.952Z,3.10
2023-01-26T08:40:10.821Z,3.20
2023-01-26T08:42:39.259Z,3.20
2023-01-26T08:45:08.367Z,3.20
2023-01-26T08:47:36.823Z,3.10
2023-01-26T08:50:05.567Z,3.00
2023-01-26T08:52:33.867Z,3.10
2023-01-26T08:55:03.539Z,3.20
2023-01-26T08:57:33.244Z,3.20
2023-01-26T09:00:01.484Z,3.20
2023-01-26T09:02:30.193Z,3.30
2023-01-26T09:04:58.775Z,3.30
2023-01-26T09:07:26.970Z,3.30
2023-01-26T09:09:55.722Z,3.50
2023-01-26T09:12:26.351Z,3.60
2023-01-26T09:14:56.051Z,3.60
2023-01-26T09:17:24.683Z,3.60
2023-01-26T09:19:52.870Z,3.80
2023-01-26T09:22:21.056Z,3.70
2023-01-26T09:24:49.795Z,3.80
2023-01-26T09:27:18.044Z,3.90
2023-01-26T09:29:46.567Z,3.90
2023-01-26T09:32:16.463Z,3.90
2023-01-26T09:34:45.991Z,3.90
2023-01-26T09:37:14.899Z,4.00
2023-01-26T09:39:43.619Z,4.10
2023-01-26T09:42:39.331Z,4.10
2023-01-26T09:45:25.895Z,4.10
2023-01-26T09:48:25.169Z,4.20
2023-01-26T09:50:58.986Z,4.20
2023-01-26T09:53:28.545Z,4.30
2023-01-26T09:55:57.647Z,4.30
2023-01-26T09:58:34.630Z,4.40
2023-01-26T10:01:04.704Z,4.50
2023-01-26T10:03:41.013Z,4.60
2023-01-26T10:06:17.375Z,4.60
2023-01-26T10:08:46.299Z,4.60
2023-01-26T10:11:20.758Z,4.80
2023-01-26T10:13:55.619Z,4.90
2023-01-26T10:16:25.356Z,4.90
2023-01-26T10:19:01.264Z,5.00
2023-01-26T10:21:34.477Z,5.00
2023-01-26T10:24:04.195Z,5.20
2023-01-26T10:26:34.536Z,5.10
2023-01-26T10:29:03.335Z,5.20
2023-01-26T10:31:33.836Z,5.30
2023-01-26T10:34:11.642Z,5.40
2023-01-26T10:36:42.160Z,5.40
2023-01-26T10:39:13.568Z,5.50
2023-01-26T10:41:58.142Z,5.60
2023-01-26T10:44:34.296Z,5.70
2023-01-26T10:47:16.685Z,5.80
2023-01-26T10:49:46.560Z,5.90
2023-01-26T10:52:18.948Z,6.00
2023-01-26T10:54:47.682Z,6.10
2023-01-26T10:57:19.779Z,6.20
2023-01-26T10:59:54.921Z,6.30
2023-01-26T11:02:29.140Z,6.40
2023-01-26T11:05:19.546Z,6.40
2023-01-26T11:07:49.608Z,6.50
2023-01-26T11:10:23.800Z,6.50
2023-01-26T11:12:53.967Z,6.50
2023-01-26T11:15:23.858Z,6.50
2023-01-26T11:17:59.660Z,6.60
2023-01-26T11:20:47.080Z,6.70
2023-01-26T11:23:24.209Z,6.70
2023-01-26T11:26:07.755Z,6.80
2023-01-26T11:28:47.272Z,6.80
2023-01-26T11:31:30.614Z,6.80
2023-01-26T11:34:10.152Z,6.80
2023-01-26T11:36:48.965Z,6.80
2023-01-26T11:39:26.697Z,6.80
2023-01-26T11:42:07.861Z,6.70
2023-01-26T11:45:02.718Z,6.70
2023-01-26T11:47:43.876Z,6.70
2023-01-26T11:50:24.854Z,6.80
2023-01-26T11:53:16.022Z,6.80
2023-01-26T11:55:56.393Z,6.80
2023-01-26T11:58:32.547Z,7.00
2023-01-26T12:01:03.628Z,7.10
2023-01-26T12:03:40.288Z,7.10
2023-01-26T12:06:17.056Z,7.10
2023-01-26T12:08:52.858Z,7.10
2023-01-26T12:11:25.617Z,7.30
2023-01-26T12:14:06.550Z,7.40
2023-01-26T12:16:42.629Z,7.50
2023-01-26T12:19:17.092Z,7.50
2023-01-26T12:21:47.048Z,7.60
2023-01-26T12:24:54.080Z,7.70
2023-01-26T12:27:21.052Z,7.80
2023-01-26T12:29:53.247Z,7.70
2023-01-26T12:32:22.861Z,7.80
2023-01-26T12:34:51.113Z,7.90
2023-01-26T12:37:35.850Z,7.90
2023-01-26T12:40:17.440Z,8.00
2023-01-26T12:42:50.862Z,8.10
2023-01-26T12:45:22.250Z,8.30
2023-01-26T12:47:53.613Z,8.40
2023-01-26T12:50:28.091Z,8.50
2023-01-26T12:53:01.282Z,8.50
2023-01-26T12:55:35.980Z,8.50
2023-01-26T12:58:06.756Z,8.80
2023-01-26T13:00:38.191Z,9.00
2023-01-26T13:03:15.355Z,9.00
2023-01-26T13:05:58.146Z,9.00
2023-01-26T13:08:49.088Z,8.90
2023-01-26T13:11:48.172Z,8.70
2023-01-26T13:14:37.598Z,8.60
2023-01-26T13:17:42.721Z,8.40
2023-01-26T13:20:42.347Z,8.30
2023-01-26T13:23:53.108Z,8.20
2023-01-26T13:26:47.526Z,8.10
2023-01-26T13:29:36.200Z,8.00
2023-01-26T13:32:34.182Z,7.90
2023-01-26T13:35:05.603Z,7.90
2023-01-26T13:37:47.698Z,7.80
2023-01-26T13:40:20.297Z,7.90
2023-01-26T13:42:57.981Z,7.90
2023-01-26T13:45:34.017Z,7.80
2023-01-26T13:48:05.784Z,7.80
2023-01-26T13:50:37.680Z,7.90
2023-01-26T13:53:37.167Z,7.80
2023-01-26T13:56:08.028Z,7.90
2023-01-26T13:58:37.664Z,8.00
2023-01-26T14:01:08.454Z,7.90
2023-01-26T14:03:36.959Z,7.90
2023-01-26T14:06:09.615Z,7.90
2023-01-26T14:08:39.574Z,7.90
2023-01-26T14:11:19.236Z,8.10
2023-01-26T14:13:53.077Z,7.90
2023-01-26T14:16:26.432Z,7.90
2023-01-26T14:19:07.397Z,7.80
2023-01-26T14:21:47.921Z,7.80
2023-01-26T14:24:16.231Z,7.80
2023-01-26T14:26:44.918Z,7.90
2023-01-26T14:29:22.759Z,7.80
2023-01-26T14:31:52.570Z,7.80
2023-01-26T14:34:23.129Z,7.80
2023-01-26T14:37:06.558Z,7.80
2023-01-26T14:39:35.043Z,7.80
2023-01-26T14:42:04.308Z,7.80
2023-01-26T14:44:34.105Z,7.80
2023-01-26T14:47:08.216Z,7.90
2023-01-26T14:49:44.177Z,7.90
2023-01-26T14:52:23.976Z,7.80
2023-01-26T14:54:54.596Z,7.80
2023-01-26T14:57:25.416Z,7.70
2023-01-26T15:00:00.985Z,7.70
2023-01-26T15:02:37.372Z,7.80
2023-01-26T15:05:13.417Z,7.80
2023-01-26T15:07:44.989Z,7.70
2023-01-26T15:10:29.067Z,7.60
2023-01-26T15:12:59.668Z,7.60
2023-01-26T15:15:32.366Z,7.60
2023-01-26T15:18:18.426Z,7.60
2023-01-26T15:21:00.448Z,7.70
2023-01-26T15:23:31.771Z,7.70
2023-01-26T15:26:07.447Z,7.60
2023-01-26T15:28:37.193Z,7.50
2023-01-26T15:31:07.540Z,7.50
2023-01-26T15:33:54.607Z,7.50
2023-01-26T15:36:35.705Z,7.60
2023-01-26T15:39:12.983Z,7.50
2023-01-26T15:41:41.946Z,7.50
2023-01-26T15:44:15.973Z,7.40
2023-01-26T15:46:46.177Z,7.40
2023-01-26T15:49:15.403Z,7.30
2023-01-26T15:51:43.705Z,7.20
2023-01-26T15:54:12.946Z,7.30
2023-01-26T15:56:41.415Z,7.40
2023-01-26T15:59:09.746Z,7.30
2023-01-26T16:01:38.114Z,7.20
2023-01-26T16:04:07.900Z,7.20
2023-01-26T16:06:36.230Z,7.10
2023-01-26T16:09:04.639Z,7.10
2023-01-26T16:11:35.365Z,7.20
2023-01-26T16:14:04.560Z,7.10
2023-01-26T16:16:33.590Z,7.10
2023-01-26T16:19:01.949Z,7.20
2023-01-26T16:21:35.183Z,7.20
2023-01-26T16:24:03.834Z,7.20
2023-01-26T16:26:34.027Z,7.10
2023-01-26T16:29:02.516Z,7.10
2023-01-26T16:31:32.527Z,7.10
2023-01-26T16:34:01.301Z,7.10
2023-01-26T16:36:30.416Z,7.00
2023-01-26T16:39:00.141Z,7.00
2023-01-26T16:41:29.774Z,7.00
2023-01-26T16:44:00.703Z,6.90
2023-01-26T16:46:30.523Z,6.90
2023-01-26T16:48:59.024Z,6.90
2023-01-26T16:51:30.192Z,6.90
2023-01-26T16:54:00.089Z,7.00
2023-01-26T16:56:29.198Z,7.00
2023-01-26T16:58:57.797Z,7.00
2023-01-26T17:01:28.933Z,6.90
2023-01-26T17:03:57.877Z,6.90
2023-01-26T17:06:26.377Z,6.90
2023-01-26T17:08:54.538Z,6.90
2023-01-26T17:11:30.016Z,7.00
2023-01-26T17:13:59.440Z,6.90
2023-01-26T17:16:32.206Z,7.00
2023-01-26T17:19:00.683Z,6.90
2023-01-26T17:21:29.006Z,7.00
2023-01-26T17:23:59.139Z,7.00
2023-01-26T17:26:29.165Z,7.00
2023-01-26T17:28:57.702Z,7.00
2023-01-26T17:31:27.040Z,7.00
2023-01-26T17:33:56.299Z,6.90
2023-01-26T17:36:24.692Z,6.80
2023-01-26T17:38:53.642Z,6.80
2023-01-26T17:41:21.962Z,6.80
2023-01-26T17:43:52.019Z,6.80
2023-01-26T17:46:22.356Z,6.70
2023-01-26T17:48:51.185Z,6.70
2023-01-26T17:51:21.151Z,6.70
2023-01-26T17:53:50.869Z,6.70
2023-01-26T17:56:20.623Z,6.70
2023-01-26T17:58:50.076Z,6.70
2023-01-26T18:01:20.740Z,6.70
2023-01-26T18:03:49.881Z,6.70
2023-01-26T18:06:18.331Z,6.80
2023-01-26T18:08:46.995Z,6.70
2023-01-26T18:11:16.980Z,6.70
2023-01-26T18:13:45.653Z,6.70
2023-01-26T18:16:18.297Z,6.60
2023-01-26T18:18:48.598Z,6.50
2023-01-26T18:21:18.753Z,6.60
2023-01-26T18:23:47.753Z,6.50
2023-01-26T18:26:16.563Z,6.60
2023-01-26T18:28:45.880Z,6.60
2023-01-26T18:31:17.048Z,6.50
2023-01-26T18:33:45.668Z,6.60
2023-01-26T18:36:18.338Z,6.60
2023-01-26T18:38:50.916Z,6.60
2023-01-26T18:41:20.749Z,6.50
2023-01-26T18:43:51.950Z,6.40
2023-01-26T18:46:20.606Z,6.40
2023-01-26T18:48:48.819Z,6.50
2023-01-26T18:51:19.316Z,6.40
2023-01-26T18:53:47.665Z,6.40
2023-01-26T18:56:17.833Z,6.50
2023-01-26T18:58:46.469Z,6.50
2023-01-26T19:01:16.584Z,6.50
2023-01-26T19:03:47.644Z,6.50
2023-01-26T19:06:19.815Z,6.40
2023-01-26T19:08:49.129Z,6.50
2023-01-26T19:11:17.437Z,6.50
2023-01-26T19:13:48.862Z,6.60
2023-01-26T19:16:17.170Z,6.60
2023-01-26T19:18:45.712Z,6.60
2023-01-26T19:21:14.138Z,6.50
2023-01-26T19:23:45.331Z,6.50
2023-01-26T19:26:19.491Z,6.60
2023-01-26T19:28:50.487Z,6.60
2023-01-26T19:31:19.782Z,6.60
2023-01-26T19:33:51.951Z,6.50
2023-01-26T19:36:21.064Z,6.50
2023-01-26T19:38:51.029Z,6.50
2023-01-26T19:41:19.807Z,6.50
2023-01-26T19:43:48.435Z,6.50
2023-01-26T19:46:17.952Z,6.60
2023-01-26T19:48:46.860Z,6.60
2023-01-26T19:51:16.885Z,6.60
2023-01-26T19:53:46.252Z,6.50
2023-01-26T19:56:17.834Z,6.50
2023-01-26T19:58:50.891Z,6.50
2023-01-26T20:01:19.899Z,6.40
2023-01-26T20:03:51.387Z,6.50
2023-01-26T20:06:22.033Z,6.50
2023-01-26T20:08:50.956Z,6.50
2023-01-26T20:11:25.050Z,6.40
2023-01-26T20:13:56.820Z,6.50
2023-01-26T20:16:28.330Z,6.60
2023-01-26T20:18:57.502Z,6.50
2023-01-26T20:21:25.875Z,6.40
2023-01-26T20:23:55.960Z,6.40
2023-01-26T20:26:27.632Z,6.40
2023-01-26T20:28:58.303Z,6.50
2023-01-26T20:31:27.682Z,6.40
2023-01-26T20:33:56.931Z,6.50
2023-01-26T20:36:28.817Z,6.40
2023-01-26T20:38:57.648Z,6.40
2023-01-26T20:41:29.035Z,6.50
2023-01-26T20:44:00.868Z,6.50
2023-01-26T20:46:31.286Z,6.50
2023-01-26T20:49:00.417Z,6.40
2023-01-26T20:51:30.691Z,6.50
2023-01-26T20:53:59.454Z,6.40
2023-01-26T20:56:29.245Z,6.40
2023-01-26T20:58:57.730Z,6.40
2023-01-26T21:01:26.852Z,6.40
2023-01-26T21:03:55.782Z,6.50
2023-01-26T21:06:26.170Z,6.60
2023-01-26T21:08:56.381Z,6.50
2023-01-26T21:11:26.544Z,6.50
2023-01-26T21:13:56.616Z,6.50
2023-01-26T21:16:25.366Z,6.50
2023-01-26T21:18:53.980Z,6.40
2023-01-26T21:21:23.973Z,6.50
2023-01-26T21:23:52.518Z,6.40
2023-01-26T21:26:22.651Z,6.40
2023-01-26T21:28:52.200Z,6.50
2023-01-26T21:31:23.568Z,6.60
2023-01-26T21:33:52.973Z,6.50
2023-01-26T21:36:22.679Z,6.40
2023-01-26T21:38:53.378Z,6.30
2023-01-26T21:41:41.073Z,6.30
2023-01-26T21:44:11.726Z,6.30
2023-01-26T21:46:41.495Z,6.40
2023-01-26T21:49:11.355Z,6.40
2023-01-26T21:52:02.612Z,6.40
2023-01-26T21:54:31.880Z,6.40
2023-01-26T21:57:00.882Z,6.30
2023-01-26T21:59:29.121Z,6.40
2023-01-26T22:01:59.774Z,6.40
2023-01-26T22:04:30.114Z,6.40
2023-01-26T22:06:59.916Z,6.40
2023-01-26T22:09:28.450Z,6.40
2023-01-26T22:11:56.694Z,6.40
2023-01-26T22:14:27.046Z,6.40
2023-01-26T22:16:55.265Z,6.40
2023-01-26T22:19:25.982Z,6.40
2023-01-26T22:21:54.732Z,6.40
2023-01-26T22:24:23.118Z,6.30
2023-01-26T22:26:51.471Z,6.20
2023-01-26T22:29:19.981Z,6.20
2023-01-26T22:31:50.572Z,6.20
2023-01-26T22:34:18.998Z,6.20
2023-01-26T22:36:48.955Z,6.20
2023-01-26T22:39:17.205Z,6.20
2023-01-26T22:41:45.467Z,6.10
2023-01-26T22:44:13.799Z,6.30
2023-01-26T22:46:41.975Z,6.20
2023-01-26T22:49:11.540Z,6.10
2023-01-26T22:51:39.970Z,6.10
2023-01-26T22:54:09.744Z,6.10
2023-01-26T22:56:37.970Z,6.10
2023-01-26T22:59:06.369Z,6.10
2023-01-26T23:01:34.595Z,6.10
2023-01-26T23:04:03.292Z,6.00
2023-01-26T23:06:32.101Z,6.00
2023-01-26T23:09:01.292Z,6.10
2023-01-26T23:11:31.507Z,6.20
2023-01-26T23:14:01.062Z,6.20
2023-01-26T23:16:29.882Z,6.20
2023-01-26T23:19:00.216Z,6.10
2023-01-26T23:21:30.086Z,6.10
2023-01-26T23:23:58.520Z,6.20
2023-01-26T23:26:27.248Z,6.00
2023-01-26T23:28:57.415Z,6.00
2023-01-26T23:31:25.657Z,6.10
2023-01-26T23:33:54.013Z,6.00
2023-01-26T23:36:22.764Z,6.10
2023-01-26T23:38:51.080Z,6.10
2023-01-26T23:41:19.665Z,6.10
2023-01-26T23:43:48.074Z,6.10
2023-01-26T23:46:17.723Z,6.00
2023-01-26T23:48:46.015Z,6.10
2023-01-26T23:51:14.789Z,6.00
2023-01-26T23:53:43.059Z,6.10
2023-01-26T23:56:13.682Z,6.00
2023-01-26T23:58:42.606Z,5.90
